createdAt,value
2023-03-04T00:02:24.080Z,6.20
2023-03-04T00:04:50.734Z,6.40
2023-03-04T00:07:18.962Z,6.70
2023-03-04T00:09:45.700Z,6.38
2023-03-04T00:12:12.544Z,6.50
2023-03-04T00:14:38.979Z,6.95
2023-03-04T00:17:05.501Z,6.53
2023-03-04T00:19:31.937Z,6.25
2023-03-04T00:21:58.421Z,7.00
2023-03-04T00:24:25.234Z,6.78
2023-03-04T00:26:51.800Z,6.25
2023-03-04T00:29:18.201Z,6.65
2023-03-04T00:31:44.625Z,6.53
2023-03-04T00:34:11.016Z,6.60
2023-03-04T00:36:37.412Z,6.82
2023-03-04T00:39:03.842Z,6.72
2023-03-04T00:41:30.252Z,6.75
2023-03-04T00:43:56.776Z,6.50
2023-03-04T00:46:23.217Z,6.57
2023-03-04T00:48:49.615Z,6.22
2023-03-04T00:51:16.062Z,6.53
2023-03-04T00:53:42.525Z,5.70
2023-03-04T00:56:09.077Z,6.45
2023-03-04T00:58:35.520Z,5.53
2023-03-04T01:01:02.017Z,6.03
2023-03-04T01:03:31.430Z,6.07
2023-03-04T01:05:58.407Z,5.65
2023-03-04T01:08:25.032Z,5.78
2023-03-04T01:10:51.560Z,5.95
2023-03-04T01:13:17.995Z,6.00
2023-03-04T01:15:44.438Z,5.40
2023-03-04T01:18:10.965Z,5.93
2023-03-04T01:20:37.404Z,6.03
2023-03-04T01:23:03.860Z,5.63
2023-03-04T01:25:30.305Z,5.38
2023-03-04T01:27:56.729Z,5.55
2023-03-04T01:30:23.185Z,5.60
2023-03-04T01:32:49.581Z,5.13
2023-03-04T01:35:16.060Z,5.80
2023-03-04T01:37:42.503Z,5.20
2023-03-04T01:40:09.665Z,5.25
2023-03-04T01:42:36.127Z,4.75
2023-03-04T01:45:03.448Z,5.10
2023-03-04T01:47:30.770Z,5.25
2023-03-04T01:49:58.047Z,4.28
2023-03-04T01:52:26.155Z,4.80
2023-03-04T01:54:52.597Z,4.82
2023-03-04T01:57:23.637Z,5.20
2023-03-04T02:00:08.936Z,4.53
2023-03-04T02:02:35.524Z,4.65
2023-03-04T02:05:01.990Z,4.40
2023-03-04T02:07:28.484Z,4.30
2023-03-04T02:09:54.916Z,5.05
2023-03-04T02:12:21.333Z,4.82
2023-03-04T02:14:47.762Z,5.13
2023-03-04T02:17:14.329Z,4.43
2023-03-04T02:19:53.231Z,4.13
2023-03-04T02:22:19.724Z,4.35
2023-03-04T02:24:48.053Z,4.30
2023-03-04T02:27:14.599Z,4.22
2023-03-04T02:29:41.217Z,4.00
2023-03-04T02:32:10.850Z,3.90
2023-03-04T02:34:37.610Z,4.15
2023-03-04T02:37:04.403Z,3.88
2023-03-04T02:39:41.576Z,3.85
2023-03-04T02:42:08.408Z,4.03
2023-03-04T02:44:36.200Z,3.67
2023-03-04T02:47:03.523Z,3.72
2023-03-04T02:49:31.014Z,3.83
2023-03-04T02:52:00.571Z,3.88
2023-03-04T02:54:27.020Z,4.15
2023-03-04T02:56:54.576Z,4.05
2023-03-04T02:59:21.847Z,3.80
2023-03-04T03:01:51.845Z,3.92
2023-03-04T03:04:18.610Z,4.18
2023-03-04T03:06:45.161Z,3.90
2023-03-04T03:09:11.731Z,3.58
2023-03-04T03:11:38.440Z,4.15
2023-03-04T03:14:05.340Z,3.90
2023-03-04T03:16:31.938Z,3.63
2023-03-04T03:18:58.624Z,3.50
2023-03-04T03:21:25.351Z,3.97
2023-03-04T03:23:51.833Z,4.20
2023-03-04T03:26:18.299Z,4.00
2023-03-04T03:28:44.761Z,3.58
2023-03-04T03:31:11.357Z,3.67
2023-03-04T03:33:37.864Z,3.55
2023-03-04T03:36:05.038Z,4.03
2023-03-04T03:38:31.528Z,3.55
2023-03-04T03:40:57.988Z,3.67
2023-03-04T03:43:24.415Z,3.95
2023-03-04T03:45:52.037Z,3.83
2023-03-04T03:48:18.684Z,4.43
2023-03-04T03:50:45.698Z,4.35
2023-03-04T03:53:12.207Z,4.10
2023-03-04T03:55:39.195Z,4.22
2023-03-04T03:58:05.819Z,4.03
2023-03-04T04:00:32.285Z,4.18
2023-03-04T04:02:59.455Z,4.50
2023-03-04T04:05:26.333Z,3.92
2023-03-04T04:07:54.125Z,3.72
2023-03-04T04:10:21.622Z,3.50
2023-03-04T04:12:48.062Z,4.00
2023-03-04T04:15:14.496Z,3.88
2023-03-04T04:17:40.975Z,3.97
2023-03-04T04:20:08.116Z,3.80
2023-03-04T04:22:34.515Z,4.13
2023-03-04T04:25:01.576Z,4.20
2023-03-04T04:27:28.068Z,3.97
2023-03-04T04:29:54.470Z,3.90
2023-03-04T04:32:21.021Z,4.00
2023-03-04T04:34:47.524Z,4.43
2023-03-04T04:37:13.925Z,4.60
2023-03-04T04:39:40.403Z,4.07
2023-03-04T04:42:06.889Z,4.30
2023-03-04T04:44:33.387Z,4.22
2023-03-04T04:46:59.802Z,3.83
2023-03-04T04:49:26.242Z,4.75
2023-03-04T04:51:52.683Z,4.30
2023-03-04T04:54:19.138Z,5.00
2023-03-04T04:56:45.719Z,5.03
2023-03-04T04:59:12.439Z,4.90
2023-03-04T05:01:38.977Z,5.35
2023-03-04T05:04:05.431Z,4.88
2023-03-04T05:06:31.857Z,4.53
2023-03-04T05:08:58.308Z,4.20
2023-03-04T05:11:24.865Z,4.97
2023-03-04T05:13:51.660Z,5.40
2023-03-04T05:16:18.204Z,5.28
2023-03-04T05:18:44.657Z,5.43
2023-03-04T05:21:11.186Z,4.68
2023-03-04T05:23:39.150Z,5.10
2023-03-04T05:26:06.531Z,5.00
2023-03-04T05:28:33.138Z,5.00
2023-03-04T05:30:59.683Z,5.78
2023-03-04T05:33:26.424Z,5.30
2023-03-04T05:35:54.149Z,4.60
2023-03-04T05:38:21.110Z,4.72
2023-03-04T05:40:48.347Z,4.72
2023-03-04T05:43:15.203Z,4.90
2023-03-04T05:45:43.201Z,5.10
2023-03-04T05:48:10.037Z,4.55
2023-03-04T05:50:36.537Z,4.63
2023-03-04T05:53:03.261Z,4.57
2023-03-04T05:55:30.125Z,4.72
2023-03-04T05:57:57.030Z,4.30
2023-03-04T06:00:23.760Z,4.57
2023-03-04T06:02:50.296Z,4.65
2023-03-04T06:05:17.029Z,4.45
2023-03-04T06:07:44.037Z,4.82
2023-03-04T06:10:11.447Z,4.80
2023-03-04T06:12:37.913Z,4.80
2023-03-04T06:15:06.145Z,4.80
2023-03-04T06:17:32.799Z,4.00
2023-03-04T06:19:59.201Z,4.90
2023-03-04T06:22:25.621Z,4.35
2023-03-04T06:24:52.042Z,4.85
2023-03-04T06:27:18.462Z,4.10
2023-03-04T06:29:44.958Z,4.43
2023-03-04T06:32:11.460Z,4.50
2023-03-04T06:34:38.316Z,4.35
2023-03-04T06:37:04.788Z,4.20
2023-03-04T06:39:31.386Z,4.10
2023-03-04T06:41:57.806Z,4.50
2023-03-04T06:44:24.314Z,4.63
2023-03-04T06:46:50.779Z,4.47
2023-03-04T06:49:17.290Z,4.15
2023-03-04T06:51:43.697Z,4.10
2023-03-04T06:54:10.243Z,4.43
2023-03-04T06:56:39.154Z,3.78
2023-03-04T06:59:05.550Z,4.22
2023-03-04T07:01:32.053Z,4.15
2023-03-04T07:03:58.602Z,3.92
2023-03-04T07:06:26.131Z,3.83
2023-03-04T07:08:53.063Z,3.83
2023-03-04T07:11:20.107Z,4.13
2023-03-04T07:13:46.580Z,4.18
2023-03-04T07:16:14.719Z,4.07
2023-03-04T07:18:41.148Z,3.90
2023-03-04T07:21:08.504Z,3.30
2023-03-04T07:23:35.529Z,3.25
2023-03-04T07:26:02.055Z,3.40
2023-03-04T07:28:28.464Z,3.15
2023-03-04T07:30:54.854Z,3.28
2023-03-04T07:33:21.306Z,3.22
2023-03-04T07:35:47.884Z,3.30
2023-03-04T07:38:14.369Z,2.80
2023-03-04T07:40:40.781Z,3.15
2023-03-04T07:43:07.236Z,3.33
2023-03-04T07:45:33.652Z,2.90
2023-03-04T07:48:00.616Z,3.10
2023-03-04T07:50:30.059Z,3.50
2023-03-04T07:52:56.489Z,3.13
2023-03-04T07:55:22.893Z,2.70
2023-03-04T07:57:49.334Z,2.85
2023-03-04T08:00:17.449Z,2.83
2023-03-04T08:02:44.008Z,2.83
2023-03-04T08:05:10.485Z,2.63
2023-03-04T08:07:36.943Z,2.88
2023-03-04T08:10:03.729Z,2.70
2023-03-04T08:12:30.163Z,2.70
2023-03-04T08:14:56.561Z,2.83
2023-03-04T08:17:22.956Z,2.53
2023-03-04T08:19:49.307Z,2.90
2023-03-04T08:22:15.858Z,2.72
2023-03-04T08:24:42.270Z,2.83
2023-03-04T08:27:08.717Z,2.45
2023-03-04T08:29:35.210Z,2.38
2023-03-04T08:32:01.744Z,2.35
2023-03-04T08:34:28.737Z,2.65
2023-03-04T08:36:55.196Z,2.40
2023-03-04T08:39:21.874Z,2.55
2023-03-04T08:41:48.730Z,2.53
2023-03-04T08:44:15.569Z,2.42
2023-03-04T08:46:43.118Z,2.38
2023-03-04T08:49:11.603Z,2.13
2023-03-04T08:51:38.148Z,2.40
2023-03-04T08:54:04.913Z,2.53
2023-03-04T08:56:31.408Z,2.53
2023-03-04T08:58:58.764Z,2.30
2023-03-04T09:01:25.442Z,2.42
2023-03-04T09:03:51.915Z,2.50
2023-03-04T09:06:18.842Z,2.40
2023-03-04T09:08:45.785Z,2.70
2023-03-04T09:11:12.709Z,2.50
2023-03-04T09:13:39.485Z,2.63
2023-03-04T09:16:10.226Z,2.63
2023-03-04T09:18:36.646Z,2.70
2023-03-04T09:21:03.041Z,2.58
2023-03-04T09:23:29.460Z,2.47
2023-03-04T09:25:55.936Z,2.55
2023-03-04T09:28:22.400Z,2.90
2023-03-04T09:30:48.849Z,2.60
2023-03-04T09:33:15.267Z,2.80
2023-03-04T09:35:42.183Z,2.65
2023-03-04T09:38:08.653Z,2.75
2023-03-04T09:40:53.154Z,2.65
2023-03-04T09:43:21.655Z,2.78
2023-03-04T09:45:53.371Z,2.85
2023-03-04T09:48:25.087Z,2.40
2023-03-04T09:51:12.492Z,2.55
2023-03-04T09:53:49.486Z,2.40
2023-03-04T09:56:15.958Z,2.22
2023-03-04T09:58:47.074Z,2.40
2023-03-04T10:01:34.347Z,2.25
2023-03-04T10:04:14.241Z,2.60
2023-03-04T10:06:41.486Z,2.35
2023-03-04T10:09:13.939Z,2.20
2023-03-04T10:14:23.057Z,2.40
2023-03-04T10:16:54.067Z,2.40
2023-03-04T10:19:45.753Z,2.42
2023-03-04T10:22:17.057Z,2.25
2023-03-04T10:24:47.104Z,2.10
2023-03-04T10:27:15.728Z,2.00
2023-03-04T10:29:42.130Z,1.90
2023-03-04T10:32:16.365Z,2.17
2023-03-04T10:34:42.751Z,2.03
2023-03-04T10:37:09.897Z,2.22
2023-03-04T10:39:41.006Z,1.98
2023-03-04T10:42:27.831Z,2.30
2023-03-04T10:44:58.814Z,2.17
2023-03-04T10:47:26.288Z,2.30
2023-03-04T10:49:56.811Z,2.25
2023-03-04T10:52:27.033Z,2.30
2023-03-04T10:54:54.626Z,2.13
2023-03-04T10:57:23.296Z,2.22
2023-03-04T10:59:56.405Z,2.47
2023-03-04T11:02:26.926Z,2.22
2023-03-04T11:05:19.355Z,2.30
2023-03-04T11:07:55.701Z,2.47
2023-03-04T11:10:26.074Z,2.42
2023-03-04T11:12:58.611Z,2.30
2023-03-04T11:15:27.598Z,2.30
2023-03-04T11:17:59.374Z,1.92
2023-03-04T11:20:25.697Z,2.65
2023-03-04T11:22:52.389Z,2.10
2023-03-04T11:25:31.070Z,2.30
2023-03-04T11:28:11.553Z,2.17
2023-03-04T11:30:40.382Z,2.30
2023-03-04T11:33:20.997Z,2.20
2023-03-04T11:36:06.370Z,2.25
2023-03-04T11:38:37.953Z,2.50
2023-03-04T11:41:13.100Z,2.07
2023-03-04T11:43:41.799Z,2.15
2023-03-04T11:46:20.520Z,2.05
2023-03-04T11:49:10.193Z,2.00
2023-03-04T11:51:52.099Z,2.42
2023-03-04T11:54:21.680Z,2.20
2023-03-04T11:56:53.223Z,2.20
2023-03-04T11:59:25.804Z,1.87
2023-03-04T12:02:10.544Z,2.28
2023-03-04T12:04:48.204Z,2.15
2023-03-04T12:07:26.857Z,2.08
2023-03-04T12:10:01.695Z,2.30
2023-03-04T12:12:31.127Z,2.22
2023-03-04T12:14:57.472Z,2.20
2023-03-04T12:17:42.322Z,1.85
2023-03-04T12:20:25.245Z,2.17
2023-03-04T12:22:57.134Z,2.30
2023-03-04T12:25:26.729Z,2.05
2023-03-04T12:28:00.709Z,2.53
2023-03-04T12:30:45.691Z,1.90
2023-03-04T12:33:12.158Z,2.80
2023-03-04T12:35:42.059Z,2.40
2023-03-04T12:38:27.453Z,2.20
2023-03-04T12:40:53.831Z,1.80
2023-03-04T12:43:26.043Z,2.30
2023-03-04T12:45:57.755Z,2.13
2023-03-04T12:48:24.137Z,2.50
2023-03-04T12:50:59.456Z,2.08
2023-03-04T12:53:42.965Z,1.92
2023-03-04T12:56:18.064Z,2.08
2023-03-04T12:58:44.639Z,2.28
2023-03-04T13:01:12.616Z,1.90
2023-03-04T13:03:54.794Z,2.25
2023-03-04T13:06:29.931Z,2.30
2023-03-04T13:08:56.284Z,1.83
2023-03-04T13:11:25.806Z,1.90
2023-03-04T13:14:01.414Z,1.90
2023-03-04T13:16:30.225Z,1.98
2023-03-04T13:18:57.191Z,1.88
2023-03-04T13:21:23.696Z,2.15
2023-03-04T13:23:50.881Z,2.10
2023-03-04T13:26:18.149Z,1.83
2023-03-04T13:28:44.905Z,2.25
2023-03-04T13:31:11.310Z,2.03
2023-03-04T13:33:37.707Z,1.90
2023-03-04T13:36:25.954Z,1.92
2023-03-04T13:39:22.592Z,1.80
2023-03-04T13:41:50.368Z,1.98
2023-03-04T13:44:32.097Z,1.80
2023-03-04T13:47:07.155Z,2.00
2023-03-04T13:49:33.689Z,1.67
2023-03-04T13:52:20.131Z,1.98
2023-03-04T13:54:46.598Z,2.05
2023-03-04T13:57:20.702Z,1.98
2023-03-04T13:59:54.705Z,1.70
2023-03-04T14:02:22.723Z,1.77
2023-03-04T14:04:58.197Z,1.90
2023-03-04T14:07:35.350Z,1.80
2023-03-04T14:10:08.894Z,1.85
2023-03-04T14:12:36.545Z,1.80
2023-03-04T14:15:05.967Z,1.80
2023-03-04T14:17:36.583Z,1.73
2023-03-04T14:20:04.983Z,1.80
2023-03-04T14:22:39.311Z,1.58
2023-03-04T14:25:07.238Z,1.35
2023-03-04T14:27:36.311Z,1.65
2023-03-04T14:30:05.033Z,1.48
2023-03-04T14:32:31.671Z,1.48
2023-03-04T14:35:01.657Z,1.42
2023-03-04T14:37:33.659Z,1.40
2023-03-04T14:40:00.509Z,1.60
2023-03-04T14:42:36.979Z,1.73
2023-03-04T14:45:03.558Z,1.42
2023-03-04T14:47:29.961Z,1.70
2023-03-04T14:49:56.443Z,1.40
2023-03-04T14:52:41.796Z,1.30
2023-03-04T14:55:14.299Z,1.40
2023-03-04T14:57:41.722Z,1.50
2023-03-04T15:00:14.760Z,1.60
2023-03-04T15:02:41.805Z,1.48
2023-03-04T15:05:19.644Z,1.50
2023-03-04T15:07:53.468Z,1.52
2023-03-04T15:10:25.663Z,1.80
2023-03-04T15:12:53.526Z,1.60
2023-03-04T15:15:31.994Z,1.23
2023-03-04T15:17:59.937Z,1.35
2023-03-04T15:20:27.314Z,1.40
2023-03-04T15:22:53.875Z,1.42
2023-03-04T15:25:20.614Z,1.55
2023-03-04T15:27:47.370Z,1.42
2023-03-04T15:30:15.913Z,1.50
2023-03-04T15:32:42.360Z,1.38
2023-03-04T15:35:16.088Z,1.48
2023-03-04T15:37:42.967Z,1.40
2023-03-04T15:40:24.986Z,1.60
2023-03-04T15:42:51.612Z,1.35
2023-03-04T15:45:18.161Z,1.30
2023-03-04T15:47:44.552Z,1.25
2023-03-04T15:50:11.376Z,1.40
2023-03-04T15:52:39.659Z,1.60
2023-03-04T15:55:07.138Z,1.60
2023-03-04T15:57:33.825Z,1.33
2023-03-04T16:00:00.289Z,1.40
2023-03-04T16:02:30.699Z,1.15
2023-03-04T16:04:57.080Z,1.38
2023-03-04T16:07:24.910Z,1.45
2023-03-04T16:09:56.604Z,1.25
2023-03-04T16:12:24.409Z,1.15
2023-03-04T16:14:51.253Z,1.10
2023-03-04T16:17:17.663Z,1.50
2023-03-04T16:19:44.329Z,1.23
2023-03-04T16:22:24.137Z,1.35
2023-03-04T16:24:51.101Z,1.20
2023-03-04T16:27:18.221Z,1.20
2023-03-04T16:29:44.658Z,1.42
2023-03-04T16:32:11.310Z,1.42
2023-03-04T16:34:37.745Z,1.40
2023-03-04T16:37:07.030Z,1.40
2023-03-04T16:39:33.760Z,1.20
2023-03-04T16:42:00.277Z,1.30
2023-03-04T16:44:26.691Z,1.42
2023-03-04T16:46:53.164Z,1.42
2023-03-04T16:49:19.651Z,1.48
2023-03-04T16:51:48.207Z,1.42
2023-03-04T16:54:16.899Z,1.45
2023-03-04T16:56:43.328Z,1.33
2023-03-04T16:59:14.072Z,1.30
2023-03-04T17:01:40.670Z,1.60
2023-03-04T17:04:07.087Z,1.48
2023-03-04T17:06:36.245Z,1.70
2023-03-04T17:09:02.614Z,1.50
2023-03-04T17:11:29.008Z,1.20
2023-03-04T17:13:55.416Z,1.67
2023-03-04T17:16:21.882Z,1.58
2023-03-04T17:18:48.372Z,1.55
2023-03-04T17:21:16.511Z,1.45
2023-03-04T17:23:42.972Z,1.63
2023-03-04T17:26:09.467Z,1.55
2023-03-04T17:28:36.207Z,1.60
2023-03-04T17:31:08.622Z,1.95
2023-03-04T17:36:02.141Z,1.63
2023-03-04T17:38:28.535Z,1.70
2023-03-04T17:40:56.526Z,1.90
2023-03-04T17:43:23.095Z,1.58
2023-03-04T17:45:49.494Z,1.65
2023-03-04T17:48:15.984Z,1.63
2023-03-04T17:50:52.252Z,1.50
2023-03-04T17:53:18.816Z,1.70
2023-03-04T17:55:49.457Z,1.67
2023-03-04T17:58:15.876Z,1.80
2023-03-04T18:00:42.445Z,1.88
2023-03-04T18:03:12.221Z,1.55
2023-03-04T18:05:38.981Z,1.58
2023-03-04T18:08:06.646Z,1.70
2023-03-04T18:10:33.531Z,1.63
2023-03-04T18:12:59.930Z,1.98
2023-03-04T18:15:26.688Z,1.73
2023-03-04T18:17:53.293Z,1.92
2023-03-04T18:20:19.966Z,1.70
2023-03-04T18:22:46.431Z,1.75
2023-03-04T18:25:12.956Z,1.88
2023-03-04T18:27:40.265Z,1.95
2023-03-04T18:30:07.572Z,2.00
2023-03-04T18:32:49.481Z,1.95
2023-03-04T18:35:19.625Z,2.08
2023-03-04T18:37:46.248Z,2.20
2023-03-04T18:40:12.979Z,2.17
2023-03-04T18:42:39.463Z,1.90
2023-03-04T18:45:06.593Z,2.03
2023-03-04T18:47:33.675Z,2.05
2023-03-04T18:50:00.131Z,2.00
2023-03-04T18:52:26.615Z,2.22
2023-03-04T18:54:53.033Z,2.15
2023-03-04T18:57:19.637Z,2.42
2023-03-04T18:59:52.014Z,2.10
2023-03-04T19:04:44.910Z,2.25
2023-03-04T19:07:11.326Z,2.20
2023-03-04T19:09:37.732Z,2.45
2023-03-04T19:12:06.502Z,2.45
2023-03-04T19:14:33.070Z,2.58
2023-03-04T19:16:59.466Z,2.70
2023-03-04T19:19:25.990Z,2.78
2023-03-04T19:21:52.391Z,2.35
2023-03-04T19:24:18.786Z,2.30
2023-03-04T19:26:45.224Z,2.33
2023-03-04T19:29:12.177Z,2.20
2023-03-04T19:31:41.207Z,2.20
2023-03-04T19:34:07.971Z,2.33
2023-03-04T19:36:34.387Z,2.63
2023-03-04T19:39:01.086Z,2.10
2023-03-04T19:41:27.505Z,1.80
2023-03-04T19:43:54.442Z,2.17
2023-03-04T19:46:21.320Z,2.03
2023-03-04T19:48:50.236Z,2.00
2023-03-04T19:51:17.880Z,2.00
2023-03-04T19:53:44.786Z,1.65
2023-03-04T19:56:11.451Z,1.90
2023-03-04T19:58:37.880Z,1.90
2023-03-04T20:01:04.568Z,2.13
2023-03-04T20:03:31.203Z,1.52
2023-03-04T20:06:07.596Z,1.58
2023-03-04T20:08:36.587Z,1.80
2023-03-04T20:11:08.094Z,1.38
2023-03-04T20:13:34.519Z,1.83
2023-03-04T20:16:00.991Z,1.50
2023-03-04T20:18:27.598Z,1.48
2023-03-04T20:20:56.105Z,2.05
2023-03-04T20:23:22.543Z,1.75
2023-03-04T20:25:49.035Z,1.35
2023-03-04T20:28:15.457Z,1.20
2023-03-04T20:30:41.920Z,1.42
2023-03-04T20:33:08.418Z,1.30
2023-03-04T20:35:34.959Z,1.27
2023-03-04T20:38:02.554Z,1.20
2023-03-04T20:40:29.210Z,1.52
2023-03-04T20:42:55.675Z,1.48
2023-03-04T20:45:22.249Z,1.40
2023-03-04T20:47:49.911Z,1.40
2023-03-04T20:50:16.867Z,1.35
2023-03-04T20:52:43.294Z,1.23
2023-03-04T20:55:10.008Z,1.60
2023-03-04T20:57:36.381Z,1.60
2023-03-04T21:00:03.814Z,1.70
2023-03-04T21:02:30.927Z,1.27
2023-03-04T21:04:57.324Z,1.45
2023-03-04T21:07:24.349Z,1.50
2023-03-04T21:09:50.813Z,1.20
2023-03-04T21:12:17.391Z,1.50
2023-03-04T21:14:44.957Z,1.42
2023-03-04T21:17:11.970Z,1.30
2023-03-04T21:19:46.177Z,1.23
2023-03-04T21:22:16.773Z,1.13
2023-03-04T21:24:43.922Z,1.48
2023-03-04T21:27:10.535Z,1.23
2023-03-04T21:29:36.937Z,1.38
2023-03-04T21:32:22.810Z,1.35
2023-03-04T21:34:52.104Z,1.10
2023-03-04T21:37:19.514Z,1.20
2023-03-04T21:42:12.237Z,1.40
2023-03-04T21:44:48.929Z,1.35
2023-03-04T21:47:15.949Z,1.08
2023-03-04T21:49:42.362Z,1.35
2023-03-04T21:52:08.828Z,1.10
2023-03-04T21:54:35.276Z,1.10
2023-03-04T21:57:01.684Z,1.33
2023-03-04T21:59:28.115Z,1.20
2023-03-04T22:01:55.255Z,1.00
2023-03-04T22:04:21.809Z,1.23
2023-03-04T22:06:48.240Z,1.30
2023-03-04T22:09:14.755Z,1.60
2023-03-04T22:11:41.264Z,1.40
2023-03-04T22:14:07.779Z,1.30
2023-03-04T22:16:37.504Z,1.20
2023-03-04T22:19:06.315Z,1.23
2023-03-04T22:21:32.761Z,1.10
2023-03-04T22:23:59.566Z,1.30
2023-03-04T22:26:31.746Z,1.40
2023-03-04T22:29:01.735Z,1.00
2023-03-04T22:31:32.178Z,1.30
2023-03-04T22:33:59.225Z,1.05
2023-03-04T22:36:26.029Z,1.30
2023-03-04T22:38:52.571Z,1.10
2023-03-04T22:41:19.440Z,1.05
2023-03-04T22:43:45.986Z,1.50
2023-03-04T22:46:13.735Z,1.88
2023-03-04T22:48:40.274Z,1.45
2023-03-04T22:51:07.471Z,1.30
2023-03-04T22:53:33.966Z,1.30
2023-03-04T22:56:00.446Z,1.27
2023-03-04T22:58:26.880Z,1.45
2023-03-04T23:00:53.269Z,1.20
2023-03-04T23:03:19.681Z,1.33
2023-03-04T23:05:46.073Z,1.20
2023-03-04T23:08:12.433Z,1.85
2023-03-04T23:10:40.798Z,1.23
2023-03-04T23:13:07.308Z,1.33
2023-03-04T23:15:33.689Z,1.40
2023-03-04T23:18:00.123Z,1.40
2023-03-04T23:20:26.638Z,1.50
2023-03-04T23:22:53.035Z,1.40
2023-03-04T23:25:19.568Z,1.30
2023-03-04T23:27:46.050Z,1.70
2023-03-04T23:30:14.932Z,1.48
2023-03-04T23:32:41.537Z,1.15
2023-03-04T23:35:08.070Z,1.40
2023-03-04T23:37:34.592Z,1.45
2023-03-04T23:40:01.333Z,1.10
2023-03-04T23:42:27.862Z,1.30
2023-03-04T23:44:54.277Z,1.17
2023-03-04T23:47:20.685Z,1.40
2023-03-04T23:49:47.192Z,1.02
2023-03-04T23:52:13.549Z,1.27
2023-03-04T23:54:39.970Z,1.20
2023-03-04T23:57:06.396Z,1.27
2023-03-04T23:59:32.791Z,1.27
